sensor_id;sensor_type;location;lat;lon;timestamp;pressure;altitude;pressure_sealevel;temperature;humidity
79131;BME280;68530;45.194;9.142;2023-03-18T00:00:35;101016.00;;;20.22;nan
79131;BME280;68530;45.194;9.142;2023-03-18T00:03:00;101016.00;;;20.22;nan
79131;BME280;68530;45.194;9.142;2023-03-18T00:05:26;101012.47;;;20.21;nan
79131;BME280;68530;45.194;9.142;2023-03-18T00:07:51;101012.47;;;20.21;nan
79131;BME280;68530;45.194;9.142;2023-03-18T00:10:17;101008.28;;;20.17;nan
79131;BME280;68530;45.194;9.142;2023-03-18T00:12:43;101010.75;;;20.20;nan
79131;BME280;68530;45.194;9.142;2023-03-18T00:15:11;101005.53;;;20.19;nan
79131;BME280;68530;45.194;9.142;2023-03-18T00:17:37;101007.97;;;20.22;nan
79131;BME280;68530;45.194;9.142;2023-03-18T00:20:05;101008.06;;;20.20;nan
79131;BME280;68530;45.194;9.142;2023-03-18T00:22:32;101009.91;;;20.20;nan
79131;BME280;68530;45.194;9.142;2023-03-18T00:24:58;101008.06;;;20.20;nan
79131;BME280;68530;45.194;9.142;2023-03-18T00:27:23;100998.25;;;20.21;nan
79131;BME280;68530;45.194;9.142;2023-03-18T00:29:49;101000.91;;;20.21;nan
79131;BME280;68530;45.194;9.142;2023-03-18T00:32:16;101003.47;;;20.22;nan
79131;BME280;68530;45.194;9.142;2023-03-18T00:34:41;101005.22;;;20.23;nan
79131;BME280;68530;45.194;9.142;2023-03-18T00:37:07;101002.63;;;20.22;nan
79131;BME280;68530;45.194;9.142;2023-03-18T00:39:32;101008.72;;;20.24;nan
79131;BME280;68530;45.194;9.142;2023-03-18T00:41:58;101001.75;;;20.21;nan
79131;BME280;68530;45.194;9.142;2023-03-18T00:44:26;101010.56;;;20.23;nan
79131;BME280;68530;45.194;9.142;2023-03-18T00:46:51;101012.28;;;20.24;nan
79131;BME280;68530;45.194;9.142;2023-03-18T00:49:17;101009.69;;;20.23;nan
79131;BME280;68530;45.194;9.142;2023-03-18T00:51:43;101011.50;;;20.22;nan
79131;BME280;68530;45.194;9.142;2023-03-18T00:54:11;101013.34;;;20.22;nan
79131;BME280;68530;45.194;9.142;2023-03-18T00:56:38;101007.34;;;20.18;nan
79131;BME280;68530;45.194;9.142;2023-03-18T00:59:05;101002.84;;;20.19;nan
79131;BME280;68530;45.194;9.142;2023-03-18T01:01:31;100998.78;;;20.13;nan
79131;BME280;68530;45.194;9.142;2023-03-18T01:03:57;101002.41;;;20.12;nan
79131;BME280;68530;45.194;9.142;2023-03-18T01:06:25;101001.53;;;20.11;nan
79131;BME280;68530;45.194;9.142;2023-03-18T01:08:53;101001.53;;;20.11;nan
79131;BME280;68530;45.194;9.142;2023-03-18T01:11:20;100996.19;;;20.11;nan
79131;BME280;68530;45.194;9.142;2023-03-18T01:13:45;100995.34;;;20.11;nan
79131;BME280;68530;45.194;9.142;2023-03-18T01:16:12;100997.91;;;20.12;nan
79131;BME280;68530;45.194;9.142;2023-03-18T01:18:39;100988.06;;;20.13;nan
79131;BME280;68530;45.194;9.142;2023-03-18T01:21:06;100993.19;;;20.16;nan
79131;BME280;68530;45.194;9.142;2023-03-18T01:23:33;100985.25;;;20.14;nan
79131;BME280;68530;45.194;9.142;2023-03-18T01:25:59;100993.19;;;20.16;nan
79131;BME280;68530;45.194;9.142;2023-03-18T01:28:25;100982.72;;;20.13;nan
79131;BME280;68530;45.194;9.142;2023-03-18T01:30:51;100984.19;;;20.17;nan
79131;BME280;68530;45.194;9.142;2023-03-18T01:33:17;100977.88;;;20.18;nan
79131;BME280;68530;45.194;9.142;2023-03-18T01:35:44;100977.13;;;20.16;nan
79131;BME280;68530;45.194;9.142;2023-03-18T01:38:12;100967.72;;;20.10;nan
79131;BME280;68530;45.194;9.142;2023-03-18T01:40:38;100968.44;;;20.12;nan
79131;BME280;68530;45.194;9.142;2023-03-18T01:43:14;100962.25;;;20.12;nan
79131;BME280;68530;45.194;9.142;2023-03-18T01:45:45;100966.41;;;20.16;nan
79131;BME280;68530;45.194;9.142;2023-03-18T01:48:17;100964.72;;;20.15;nan
79131;BME280;68530;45.194;9.142;2023-03-18T01:50:46;100953.34;;;20.11;nan
79131;BME280;68530;45.194;9.142;2023-03-18T01:53:13;100957.56;;;20.15;nan
79131;BME280;68530;45.194;9.142;2023-03-18T01:55:41;100951.22;;;20.16;nan
79131;BME280;68530;45.194;9.142;2023-03-18T01:58:14;100951.84;;;20.20;nan
79131;BME280;68530;45.194;9.142;2023-03-18T02:00:44;100947.38;;;20.21;nan
79131;BME280;68530;45.194;9.142;2023-03-18T02:03:12;100951.97;;;20.19;nan
79131;BME280;68530;45.194;9.142;2023-03-18T02:05:39;100944.91;;;20.18;nan
79131;BME280;68530;45.194;9.142;2023-03-18T02:08:04;100941.25;;;20.19;nan
79131;BME280;68530;45.194;9.142;2023-03-18T02:10:30;100940.31;;;20.20;nan
79131;BME280;68530;45.194;9.142;2023-03-18T02:13:08;100943.81;;;20.20;nan
79131;BME280;68530;45.194;9.142;2023-03-18T02:15:38;100942.22;;;20.18;nan
79131;BME280;68530;45.194;9.142;2023-03-18T02:18:11;100936.75;;;20.19;nan
79131;BME280;68530;45.194;9.142;2023-03-18T02:20:59;100940.31;;;20.20;nan
79131;BME280;68530;45.194;9.142;2023-03-18T02:26:28;100937.06;;;20.14;nan
79131;BME280;68530;45.194;9.142;2023-03-18T02:28:59;100935.16;;;20.16;nan
79131;BME280;68530;45.194;9.142;2023-03-18T02:31:28;100929.91;;;20.15;nan
79131;BME280;68530;45.194;9.142;2023-03-18T02:33:54;100930.66;;;20.17;nan
79131;BME280;68530;45.194;9.142;2023-03-18T02:36:28;100927.88;;;20.19;nan
79131;BME280;68530;45.194;9.142;2023-03-18T02:38:55;100925.19;;;20.19;nan
79131;BME280;68530;45.194;9.142;2023-03-18T02:41:25;100920.81;;;20.18;nan
79131;BME280;68530;45.194;9.142;2023-03-18T02:43:50;100924.34;;;20.18;nan
79131;BME280;68530;45.194;9.142;2023-03-18T02:46:52;100924.47;;;20.16;nan
79131;BME280;68530;45.194;9.142;2023-03-18T02:49:20;100917.81;;;20.09;nan
79131;BME280;68530;45.194;9.142;2023-03-18T02:51:47;100922.75;;;20.15;nan
79131;BME280;68530;45.194;9.142;2023-03-18T02:54:25;100919.94;;;20.17;nan
79131;BME280;68530;45.194;9.142;2023-03-18T02:56:52;100919.09;;;20.16;nan
79131;BME280;68530;45.194;9.142;2023-03-18T02:59:18;100918.00;;;20.19;nan
79131;BME280;68530;45.194;9.142;2023-03-18T03:01:46;100917.03;;;20.20;nan
79131;BME280;68530;45.194;9.142;2023-03-18T03:04:12;100918.22;;;20.16;nan
79131;BME280;68530;45.194;9.142;2023-03-18T03:06:38;100913.75;;;20.16;nan
79131;BME280;68530;45.194;9.142;2023-03-18T03:09:06;100915.47;;;20.18;nan
79131;BME280;68530;45.194;9.142;2023-03-18T03:11:31;100915.56;;;20.16;nan
79131;BME280;68530;45.194;9.142;2023-03-18T03:13:57;100915.47;;;20.18;nan
79131;BME280;68530;45.194;9.142;2023-03-18T03:16:22;100910.19;;;20.16;nan
79131;BME280;68530;45.194;9.142;2023-03-18T03:18:48;100915.47;;;20.18;nan
79131;BME280;68530;45.194;9.142;2023-03-18T03:21:15;100921.00;;;20.14;nan
79131;BME280;68530;45.194;9.142;2023-03-18T03:23:41;100923.50;;;20.18;nan
79131;BME280;68530;45.194;9.142;2023-03-18T03:26:07;100909.47;;;20.14;nan
79131;BME280;68530;45.194;9.142;2023-03-18T03:28:33;100921.00;;;20.14;nan
79131;BME280;68530;45.194;9.142;2023-03-18T03:30:59;100924.66;;;20.13;nan
79131;BME280;68530;45.194;9.142;2023-03-18T03:33:25;100920.06;;;20.15;nan
79131;BME280;68530;45.194;9.142;2023-03-18T03:35:51;100922.84;;;20.14;nan
79131;BME280;68530;45.194;9.142;2023-03-18T03:38:17;100927.31;;;20.13;nan
79131;BME280;68530;45.194;9.142;2023-03-18T03:40:43;100922.94;;;20.12;nan
79131;BME280;68530;45.194;9.142;2023-03-18T03:43:11;100919.28;;;20.13;nan
79131;BME280;68530;45.194;9.142;2023-03-18T03:45:37;100912.22;;;20.12;nan
79131;BME280;68530;45.194;9.142;2023-03-18T03:48:03;100908.81;;;20.10;nan
79131;BME280;68530;45.194;9.142;2023-03-18T03:50:28;100917.59;;;20.12;nan
79131;BME280;68530;45.194;9.142;2023-03-18T03:52:54;100918.47;;;20.13;nan
79131;BME280;68530;45.194;9.142;2023-03-18T03:55:20;100914.16;;;20.10;nan
79131;BME280;68530;45.194;9.142;2023-03-18T03:57:47;100921.00;;;20.14;nan
79131;BME280;68530;45.194;9.142;2023-03-18T04:00:14;100913.09;;;20.13;nan
79131;BME280;68530;45.194;9.142;2023-03-18T04:02:42;100907.84;;;20.11;nan
79131;BME280;68530;45.194;9.142;2023-03-18T04:05:10;100906.88;;;20.12;nan
79131;BME280;68530;45.194;9.142;2023-03-18T04:07:36;100907.84;;;20.11;nan
79131;BME280;68530;45.194;9.142;2023-03-18T04:10:03;100911.38;;;20.12;nan
79131;BME280;68530;45.194;9.142;2023-03-18T04:12:28;100902.72;;;20.08;nan
79131;BME280;68530;45.194;9.142;2023-03-18T04:14:53;100904.41;;;20.09;nan
79131;BME280;68530;45.194;9.142;2023-03-18T04:17:19;100900.78;;;20.10;nan
79131;BME280;68530;45.194;9.142;2023-03-18T04:19:45;100889.97;;;20.12;nan
79131;BME280;68530;45.194;9.142;2023-03-18T04:22:11;100896.28;;;20.11;nan
79131;BME280;68530;45.194;9.142;2023-03-18T04:24:36;100891.03;;;20.09;nan
79131;BME280;68530;45.194;9.142;2023-03-18T04:27:02;100890.19;;;20.09;nan
79131;BME280;68530;45.194;9.142;2023-03-18T04:29:28;100899.28;;;20.06;nan
79131;BME280;68530;45.194;9.142;2023-03-18T04:31:53;100902.84;;;20.07;nan
79131;BME280;68530;45.194;9.142;2023-03-18T04:34:19;100897.47;;;20.07;nan
79131;BME280;68530;45.194;9.142;2023-03-18T04:36:45;100902.72;;;20.08;nan
79131;BME280;68530;45.194;9.142;2023-03-18T04:39:10;100898.31;;;20.07;nan
79131;BME280;68530;45.194;9.142;2023-03-18T04:41:36;100902.72;;;20.08;nan
79131;BME280;68530;45.194;9.142;2023-03-18T04:44:04;100901.09;;;20.06;nan
79131;BME280;68530;45.194;9.142;2023-03-18T04:46:30;100896.53;;;20.08;nan
79131;BME280;68530;45.194;9.142;2023-03-18T04:48:57;100894.81;;;20.07;nan
79131;BME280;68530;45.194;9.142;2023-03-18T04:51:23;100895.66;;;20.07;nan
79131;BME280;68530;45.194;9.142;2023-03-18T04:53:48;100897.34;;;20.08;nan
79131;BME280;68530;45.194;9.142;2023-03-18T04:56:13;100899.19;;;20.08;nan
79131;BME280;68530;45.194;9.142;2023-03-18T04:58:39;100896.38;;;20.09;nan
79131;BME280;68530;45.194;9.142;2023-03-18T05:01:04;100900.78;;;20.10;nan
79131;BME280;68530;45.194;9.142;2023-03-18T05:03:29;100895.56;;;20.09;nan
79131;BME280;68530;45.194;9.142;2023-03-18T05:05:55;100891.03;;;20.09;nan
79131;BME280;68530;45.194;9.142;2023-03-18T05:08:21;100888.13;;;20.12;nan
79131;BME280;68530;45.194;9.142;2023-03-18T05:10:49;100892.53;;;20.13;nan
79131;BME280;68530;45.194;9.142;2023-03-18T05:13:15;100885.38;;;20.14;nan
79131;BME280;68530;45.194;9.142;2023-03-18T05:15:40;100886.09;;;20.16;nan
79131;BME280;68530;45.194;9.142;2023-03-18T05:18:06;100891.56;;;20.14;nan
79131;BME280;68530;45.194;9.142;2023-03-18T05:20:33;100896.81;;;20.16;nan
79131;BME280;68530;45.194;9.142;2023-03-18T05:22:58;100883.19;;;20.19;nan
79131;BME280;68530;45.194;9.142;2023-03-18T05:25:23;100892.19;;;20.18;nan
79131;BME280;68530;45.194;9.142;2023-03-18T05:27:49;100884.91;;;20.20;nan
79131;BME280;68530;45.194;9.142;2023-03-18T05:30:16;100887.72;;;20.19;nan
79131;BME280;68530;45.194;9.142;2023-03-18T05:32:42;100886.75;;;20.20;nan
79131;BME280;68530;45.194;9.142;2023-03-18T05:35:08;100891.13;;;20.21;nan
79131;BME280;68530;45.194;9.142;2023-03-18T05:37:34;100891.88;;;20.23;nan
79131;BME280;68530;45.194;9.142;2023-03-18T05:40:00;100893.81;;;20.21;nan
79131;BME280;68530;45.194;9.142;2023-03-18T05:42:25;100900.13;;;20.20;nan
79131;BME280;68530;45.194;9.142;2023-03-18T05:44:51;100896.38;;;20.22;nan
79131;BME280;68530;45.194;9.142;2023-03-18T05:47:16;100891.00;;;20.22;nan
79131;BME280;68530;45.194;9.142;2023-03-18T05:49:42;100891.88;;;20.23;nan
79131;BME280;68530;45.194;9.142;2023-03-18T05:52:07;100893.59;;;20.24;nan
79131;BME280;68530;45.194;9.142;2023-03-18T05:54:34;100891.13;;;20.21;nan
79131;BME280;68530;45.194;9.142;2023-03-18T05:57:00;100898.31;;;20.20;nan
79131;BME280;68530;45.194;9.142;2023-03-18T05:59:25;100897.34;;;20.21;nan
79131;BME280;68530;45.194;9.142;2023-03-18T06:01:51;100904.31;;;20.24;nan
79131;BME280;68530;45.194;9.142;2023-03-18T06:04:17;100906.97;;;20.24;nan
79131;BME280;68530;45.194;9.142;2023-03-18T06:06:43;100911.38;;;20.25;nan
79131;BME280;68530;45.194;9.142;2023-03-18T06:09:10;100895.53;;;20.22;nan
79131;BME280;68530;45.194;9.142;2023-03-18T06:11:36;100906.97;;;20.24;nan
79131;BME280;68530;45.194;9.142;2023-03-18T06:14:03;100915.00;;;20.24;nan
79131;BME280;68530;45.194;9.142;2023-03-18T06:16:29;100924.75;;;20.25;nan
79131;BME280;68530;45.194;9.142;2023-03-18T06:18:55;100918.66;;;20.23;nan
79131;BME280;68530;45.194;9.142;2023-03-18T06:21:20;100900.97;;;20.20;nan
79131;BME280;68530;45.194;9.142;2023-03-18T06:23:46;100900.88;;;20.22;nan
79131;BME280;68530;45.194;9.142;2023-03-18T06:26:11;100903.56;;;20.22;nan
79131;BME280;68530;45.194;9.142;2023-03-18T06:28:37;100898.94;;;20.24;nan
79131;BME280;68530;45.194;9.142;2023-03-18T06:31:03;100897.97;;;20.25;nan
79131;BME280;68530;45.194;9.142;2023-03-18T06:33:28;100915.97;;;20.23;nan
79131;BME280;68530;45.194;9.142;2023-03-18T06:35:54;100912.56;;;20.21;nan
79131;BME280;68530;45.194;9.142;2023-03-18T06:38:20;100914.28;;;20.22;nan
79131;BME280;68530;45.194;9.142;2023-03-18T06:40:46;100915.00;;;20.24;nan
79131;BME280;68530;45.194;9.142;2023-03-18T06:43:12;100915.00;;;20.24;nan
79131;BME280;68530;45.194;9.142;2023-03-18T06:45:38;100906.97;;;20.24;nan
79131;BME280;68530;45.194;9.142;2023-03-18T06:48:04;100912.13;;;18.80;nan
79131;BME280;68530;45.194;9.142;2023-03-18T06:50:30;100925.53;;;17.78;nan
79131;BME280;68530;45.194;9.142;2023-03-18T06:52:56;100928.56;;;18.73;nan
79131;BME280;68530;45.194;9.142;2023-03-18T06:55:23;100930.75;;;19.36;nan
79131;BME280;68530;45.194;9.142;2023-03-18T06:57:48;100935.00;;;19.66;nan
79131;BME280;68530;45.194;9.142;2023-03-18T07:00:14;100923.34;;;19.80;nan
79131;BME280;68530;45.194;9.142;2023-03-18T07:02:40;100928.06;;;19.90;nan
79131;BME280;68530;45.194;9.142;2023-03-18T07:05:07;100927.88;;;19.93;nan
79131;BME280;68530;45.194;9.142;2023-03-18T07:07:32;100922.34;;;19.15;nan
79131;BME280;68530;45.194;9.142;2023-03-18T07:09:58;100925.72;;;19.31;nan
79131;BME280;68530;45.194;9.142;2023-03-18T07:12:24;100931.88;;;19.72;nan
79131;BME280;68530;45.194;9.142;2023-03-18T07:14:50;100922.16;;;19.71;nan
79131;BME280;68530;45.194;9.142;2023-03-18T07:17:17;100934.16;;;19.66;nan
79131;BME280;68530;45.194;9.142;2023-03-18T07:19:44;100932.75;;;19.60;nan
79131;BME280;68530;45.194;9.142;2023-03-18T07:22:09;100941.53;;;19.62;nan
79131;BME280;68530;45.194;9.142;2023-03-18T07:24:35;100928.75;;;19.53;nan
79131;BME280;68530;45.194;9.142;2023-03-18T07:27:01;100933.38;;;19.64;nan
79131;BME280;68530;45.194;9.142;2023-03-18T07:29:28;100937.03;;;19.63;nan
79131;BME280;68530;45.194;9.142;2023-03-18T07:31:54;100925.47;;;19.62;nan
79131;BME280;68530;45.194;9.142;2023-03-18T07:34:19;100929.13;;;19.61;nan
79131;BME280;68530;45.194;9.142;2023-03-18T07:36:45;100920.66;;;19.67;nan
79131;BME280;68530;45.194;9.142;2023-03-18T07:39:11;100931.28;;;19.69;nan
79131;BME280;68530;45.194;9.142;2023-03-18T07:41:36;100922.50;;;19.67;nan
79131;BME280;68530;45.194;9.142;2023-03-18T07:44:03;100928.03;;;19.64;nan
79131;BME280;68530;45.194;9.142;2023-03-18T07:46:28;100929.66;;;19.66;nan
79131;BME280;68530;45.194;9.142;2023-03-18T07:48:54;100925.34;;;19.64;nan
79131;BME280;68530;45.194;9.142;2023-03-18T07:51:20;100925.34;;;19.64;nan
79131;BME280;68530;45.194;9.142;2023-03-18T07:53:45;100927.28;;;19.62;nan
79131;BME280;68530;45.194;9.142;2023-03-18T07:56:11;100934.56;;;19.59;nan
79131;BME280;68530;45.194;9.142;2023-03-18T07:58:37;100936.91;;;19.51;nan
79131;BME280;68530;45.194;9.142;2023-03-18T08:01:03;100941.09;;;19.55;nan
79131;BME280;68530;45.194;9.142;2023-03-18T08:03:29;100941.00;;;19.57;nan
79131;BME280;68530;45.194;9.142;2023-03-18T08:05:54;100944.50;;;19.57;nan
79131;BME280;68530;45.194;9.142;2023-03-18T08:08:20;100942.38;;;19.63;nan
79131;BME280;68530;45.194;9.142;2023-03-18T08:10:47;100954.38;;;19.70;nan
79131;BME280;68530;45.194;9.142;2023-03-18T08:13:12;100950.97;;;19.68;nan
79131;BME280;68530;45.194;9.142;2023-03-18T08:18:52;100954.38;;;19.83;30.68
79131;BME280;68530;45.194;9.142;2023-03-18T08:21:18;100960.78;;;19.80;30.90
79131;BME280;68530;45.194;9.142;2023-03-18T08:23:43;100955.88;;;19.61;31.07
79131;BME280;68530;45.194;9.142;2023-03-18T08:26:09;100957.91;;;19.70;31.09
79131;BME280;68530;45.194;9.142;2023-03-18T08:28:35;100956.75;;;19.87;31.37
79131;BME280;68530;45.194;9.142;2023-03-18T08:31:01;100969.09;;;20.03;30.81
79131;BME280;68530;45.194;9.142;2023-03-18T08:33:27;100966.13;;;20.08;30.92
79131;BME280;68530;45.194;9.142;2023-03-18T08:35:54;100964.94;;;20.12;30.68
79131;BME280;68530;45.194;9.142;2023-03-18T08:38:21;100958.72;;;20.11;30.66
79131;BME280;68530;45.194;9.142;2023-03-18T08:40:47;100966.75;;;20.11;30.57
79131;BME280;68530;45.194;9.142;2023-03-18T08:43:13;100968.44;;;20.12;30.76
79131;BME280;68530;45.194;9.142;2023-03-18T08:45:38;100969.31;;;20.13;31.16
79131;BME280;68530;45.194;9.142;2023-03-18T08:48:05;100974.38;;;20.18;30.93
79131;BME280;68530;45.194;9.142;2023-03-18T08:50:31;100971.78;;;20.16;31.58
79131;BME280;68530;45.194;9.142;2023-03-18T08:52:58;100969.84;;;20.18;31.79
79131;BME280;68530;45.194;9.142;2023-03-18T08:55:33;100974.00;;;20.22;32.16
79131;BME280;68530;45.194;9.142;2023-03-18T08:57:59;100965.88;;;20.24;31.92
79131;BME280;68530;45.194;9.142;2023-03-18T09:00:26;100970.28;;;20.25;31.40
79131;BME280;68530;45.194;9.142;2023-03-18T09:02:52;100972.22;;;20.23;31.65
79131;BME280;68530;45.194;9.142;2023-03-18T09:05:18;100972.13;;;20.24;31.45
79131;BME280;68530;45.194;9.142;2023-03-18T09:07:43;100967.28;;;20.16;31.55
79131;BME280;68530;45.194;9.142;2023-03-18T09:10:10;100964.28;;;20.21;31.62
79131;BME280;68530;45.194;9.142;2023-03-18T09:12:37;100960.53;;;20.24;31.73
79131;BME280;68530;45.194;9.142;2023-03-18T09:15:03;100959.69;;;20.10;32.66
79131;BME280;68530;45.194;9.142;2023-03-18T09:17:30;100958.28;;;20.18;32.20
79131;BME280;68530;45.194;9.142;2023-03-18T09:19:55;100959.56;;;20.25;31.99
79131;BME280;68530;45.194;9.142;2023-03-18T09:22:21;100951.44;;;20.26;32.19
79131;BME280;68530;45.194;9.142;2023-03-18T09:24:47;100957.09;;;20.35;32.91
79131;BME280;68530;45.194;9.142;2023-03-18T09:27:12;100955.91;;;20.39;32.92
79131;BME280;68530;45.194;9.142;2023-03-18T09:29:38;100952.28;;;20.40;34.15
79131;BME280;68530;45.194;9.142;2023-03-18T09:32:03;100955.69;;;20.42;33.78
79131;BME280;68530;45.194;9.142;2023-03-18T09:34:30;100948.50;;;20.42;34.31
79131;BME280;68530;45.194;9.142;2023-03-18T09:36:55;100947.53;;;20.43;34.03
79131;BME280;68530;45.194;9.142;2023-03-18T09:39:22;100955.91;;;20.39;33.72
79131;BME280;68530;45.194;9.142;2023-03-18T09:46:08;100956.31;;;11.72;nan
79131;BME280;68530;45.194;9.142;2023-03-18T09:49:03;100963.97;;;11.26;nan
79131;BME280;68530;45.194;9.142;2023-03-18T09:57:33;100961.81;;;11.10;nan
79131;BME280;68530;45.194;9.142;2023-03-18T10:00:05;100962.13;;;11.01;nan
79131;BME280;68530;45.194;9.142;2023-03-18T10:02:35;100956.16;;;10.94;nan
79131;BME280;68530;45.194;9.142;2023-03-18T10:05:26;100969.47;;;10.91;nan
79131;BME280;68530;45.194;9.142;2023-03-18T10:08:00;100955.97;;;11.00;nan
79131;BME280;68530;45.194;9.142;2023-03-18T10:10:41;100969.22;;;10.99;nan
79131;BME280;68530;45.194;9.142;2023-03-18T10:13:28;100969.09;;;11.03;nan
79131;BME280;68530;45.194;9.142;2023-03-18T10:15:57;100963.94;;;10.99;nan
79131;BME280;68530;45.194;9.142;2023-03-18T10:18:30;100971.06;;;10.97;nan
79131;BME280;68530;45.194;9.142;2023-03-18T10:26:06;100973.13;;;11.15;nan
79131;BME280;68530;45.194;9.142;2023-03-18T10:34:15;100959.88;;;11.44;nan
79131;BME280;68530;45.194;9.142;2023-03-18T10:39:21;100951.75;;;11.23;nan
79131;BME280;68530;45.194;9.142;2023-03-18T10:41:48;100950.84;;;11.24;nan
79131;BME280;68530;45.194;9.142;2023-03-18T10:44:34;100948.91;;;11.29;nan
79131;BME280;68530;45.194;9.142;2023-03-18T10:47:27;100950.63;;;11.30;nan
79131;BME280;68530;45.194;9.142;2023-03-18T10:52:31;100948.03;;;11.56;nan
79131;BME280;68530;45.194;9.142;2023-03-18T10:54:58;100941.50;;;11.41;nan
79131;BME280;68530;45.194;9.142;2023-03-18T10:57:24;100938.97;;;11.37;nan
79131;BME280;68530;45.194;9.142;2023-03-18T10:59:50;100939.47;;;11.49;nan
79131;BME280;68530;45.194;9.142;2023-03-18T11:04:47;100936.25;;;11.66;nan
79131;BME280;68530;45.194;9.142;2023-03-18T11:07:21;100942.06;;;12.03;nan
79131;BME280;68530;45.194;9.142;2023-03-18T11:09:50;100936.09;;;11.96;nan
79131;BME280;68530;45.194;9.142;2023-03-18T11:12:18;100930.16;;;11.89;nan
79131;BME280;68530;45.194;9.142;2023-03-18T11:14:47;100925.53;;;11.71;nan
79131;BME280;68530;45.194;9.142;2023-03-18T11:17:32;100939.09;;;11.85;nan
79131;BME280;68530;45.194;9.142;2023-03-18T11:20:05;100939.66;;;11.70;nan
79131;BME280;68530;45.194;9.142;2023-03-18T11:22:33;100932.63;;;12.45;nan
79131;BME280;68530;45.194;9.142;2023-03-18T11:27:41;100927.81;;;12.07;nan
79131;BME280;68530;45.194;9.142;2023-03-18T11:30:22;100924.78;;;12.18;nan
79131;BME280;68530;45.194;9.142;2023-03-18T11:33:02;100919.31;;;11.97;nan
79131;BME280;68530;45.194;9.142;2023-03-18T11:38:27;100902.31;;;12.30;nan
79131;BME280;68530;45.194;9.142;2023-03-18T11:41:14;100902.59;;;12.46;nan
79131;BME280;68530;45.194;9.142;2023-03-18T11:43:56;100904.31;;;12.47;nan
79131;BME280;68530;45.194;9.142;2023-03-18T11:49:29;100891.56;;;12.34;nan
79131;BME280;68530;45.194;9.142;2023-03-18T11:55:36;100886.56;;;12.73;nan
79131;BME280;68530;45.194;9.142;2023-03-18T12:00:54;100876.13;;;13.13;nan
79131;BME280;68530;45.194;9.142;2023-03-18T12:06:27;100860.91;;;12.53;nan
79131;BME280;68530;45.194;9.142;2023-03-18T12:14:42;100852.16;;;12.95;nan
79131;BME280;68530;45.194;9.142;2023-03-18T12:20:50;100851.97;;;13.20;nan
79131;BME280;68530;45.194;9.142;2023-03-18T12:37:10;100846.50;;;12.82;nan
79131;BME280;68530;45.194;9.142;2023-03-18T12:47:47;100837.63;;;12.83;nan
79131;BME280;68530;45.194;9.142;2023-03-18T12:50:19;100836.97;;;12.78;nan
79131;BME280;68530;45.194;9.142;2023-03-18T12:53:14;100839.38;;;13.05;nan
79131;BME280;68530;45.194;9.142;2023-03-18T12:55:44;100842.03;;;13.05;nan
79131;BME280;68530;45.194;9.142;2023-03-18T12:58:14;100840.41;;;13.02;nan
79131;BME280;68530;45.194;9.142;2023-03-18T13:01:05;100845.69;;;13.45;nan
79131;BME280;68530;45.194;9.142;2023-03-18T13:03:35;100840.38;;;13.45;nan
79131;BME280;68530;45.194;9.142;2023-03-18T13:06:08;100830.63;;;13.46;nan
79131;BME280;68530;45.194;9.142;2023-03-18T13:14:16;100823.56;;;13.46;nan
79131;BME280;68530;45.194;9.142;2023-03-18T13:16:46;100832.59;;;13.41;nan
79131;BME280;68530;45.194;9.142;2023-03-18T13:19:14;100819.91;;;13.70;nan
79131;BME280;68530;45.194;9.142;2023-03-18T13:21:42;100817.84;;;13.76;nan
79131;BME280;68530;45.194;9.142;2023-03-18T13:29:37;100821.31;;;13.15;nan
79131;BME280;68530;45.194;9.142;2023-03-18T13:43:01;100817.28;;;13.06;nan
79131;BME280;68530;45.194;9.142;2023-03-18T13:45:38;100813.84;;;13.04;nan
79131;BME280;68530;45.194;9.142;2023-03-18T13:48:07;100817.41;;;13.03;nan
79131;BME280;68530;45.194;9.142;2023-03-18T13:50:46;100816.97;;;13.14;nan
79131;BME280;68530;45.194;9.142;2023-03-18T13:53:42;100813.78;;;13.68;nan
79131;BME280;68530;45.194;9.142;2023-03-18T13:59:03;100812.06;;;13.25;nan
79131;BME280;68530;45.194;9.142;2023-03-18T14:04:44;100799.81;;;14.04;nan
79131;BME280;68530;45.194;9.142;2023-03-18T14:15:42;100774.06;;;14.06;nan
79131;BME280;68530;45.194;9.142;2023-03-18T14:18:22;100767.06;;;13.46;nan
79131;BME280;68530;45.194;9.142;2023-03-18T14:20:53;100774.72;;;13.31;nan
79131;BME280;68530;45.194;9.142;2023-03-18T14:23:27;100762.00;;;13.40;nan
79131;BME280;68530;45.194;9.142;2023-03-18T14:26:04;100769.84;;;14.58;nan
79131;BME280;68530;45.194;9.142;2023-03-18T14:28:39;100773.16;;;14.81;nan
79131;BME280;68530;45.194;9.142;2023-03-18T14:31:13;100764.47;;;14.59;nan
79131;BME280;68530;45.194;9.142;2023-03-18T14:33:50;100762.25;;;13.94;nan
79131;BME280;68530;45.194;9.142;2023-03-18T14:36:16;100760.81;;;13.87;nan
79131;BME280;68530;45.194;9.142;2023-03-18T14:38:45;100763.44;;;13.68;nan
79131;BME280;68530;45.194;9.142;2023-03-18T14:41:21;100754.22;;;13.96;nan
79131;BME280;68530;45.194;9.142;2023-03-18T14:44:05;100752.75;;;13.50;nan
79131;BME280;68530;45.194;9.142;2023-03-18T14:46:37;100757.38;;;13.45;nan
79131;BME280;68530;45.194;9.142;2023-03-18T14:49:32;100747.97;;;14.53;nan
79131;BME280;68530;45.194;9.142;2023-03-18T14:52:01;100751.06;;;14.80;nan
79131;BME280;68530;45.194;9.142;2023-03-18T14:54:31;100755.47;;;14.25;nan
79131;BME280;68530;45.194;9.142;2023-03-18T14:57:01;100746.56;;;13.89;nan
79131;BME280;68530;45.194;9.142;2023-03-18T14:59:28;100743.44;;;13.60;nan
79131;BME280;68530;45.194;9.142;2023-03-18T15:01:53;100734.50;;;13.42;nan
79131;BME280;68530;45.194;9.142;2023-03-18T15:04:24;100743.47;;;13.40;nan
79131;BME280;68530;45.194;9.142;2023-03-18T15:06:51;100737.31;;;13.60;nan
79131;BME280;68530;45.194;9.142;2023-03-18T15:09:22;100735.28;;;13.46;nan
79131;BME280;68530;45.194;9.142;2023-03-18T15:11:49;100739.50;;;13.50;nan
79131;BME280;68530;45.194;9.142;2023-03-18T15:17:04;100737.63;;;13.31;nan